createdAt,value
2022-10-19T00:00:08.755Z,75.98
2022-10-19T00:02:56.432Z,75.94
2022-10-19T00:05:24.128Z,76.00
2022-10-19T00:07:51.891Z,76.06
2022-10-19T00:10:19.651Z,76.01
2022-10-19T00:15:16.190Z,75.76
2022-10-19T00:17:44.500Z,75.77
2022-10-19T00:20:12.641Z,75.72
2022-10-19T00:22:40.507Z,75.83
2022-10-19T00:25:08.592Z,75.71
2022-10-19T00:27:37.347Z,75.70
2022-10-19T00:30:05.812Z,75.60
2022-10-19T00:32:33.919Z,75.39
2022-10-19T00:35:03.654Z,75.50
2022-10-19T00:37:31.482Z,75.53
2022-10-19T00:39:59.315Z,75.50
2022-10-19T00:42:27.101Z,75.59
2022-10-19T00:44:59.690Z,75.41
2022-10-19T00:47:28.092Z,75.31
2022-10-19T00:49:57.262Z,75.51
2022-10-19T00:52:25.559Z,75.29
2022-10-19T00:54:54.169Z,75.23
2022-10-19T00:57:22.985Z,75.27
2022-10-19T00:59:51.387Z,75.45
2022-10-19T01:02:19.108Z,75.53
2022-10-19T01:04:49.230Z,75.85
2022-10-19T01:07:17.266Z,75.59
2022-10-19T01:09:45.201Z,75.73
2022-10-19T01:12:15.833Z,76.08
2022-10-19T01:15:02.712Z,76.32
2022-10-19T01:17:39.513Z,76.26
2022-10-19T01:20:26.020Z,76.75
2022-10-19T01:23:31.811Z,76.94
2022-10-19T01:26:29.967Z,77.15
2022-10-19T01:29:35.243Z,77.05
2022-10-19T01:32:10.072Z,77.21
2022-10-19T01:34:44.725Z,77.38
2022-10-19T01:37:26.605Z,77.24
2022-10-19T01:40:05.086Z,77.12
2022-10-19T01:42:42.339Z,77.45
2022-10-19T01:45:27.345Z,77.40
2022-10-19T01:48:22.465Z,77.40
2022-10-19T01:51:02.581Z,77.51
2022-10-19T01:53:34.651Z,77.64
2022-10-19T01:56:03.342Z,77.51
2022-10-19T01:58:34.167Z,77.30
2022-10-19T02:01:05.381Z,77.34
2022-10-19T02:03:34.707Z,77.41
2022-10-19T02:06:06.854Z,77.11
2022-10-19T02:08:41.644Z,77.03
2022-10-19T02:11:09.554Z,77.17
2022-10-19T02:13:39.217Z,77.00
2022-10-19T02:16:12.054Z,76.84
2022-10-19T02:18:45.166Z,76.85
2022-10-19T02:21:12.964Z,76.99
2022-10-19T02:23:40.775Z,76.86
2022-10-19T02:26:08.783Z,76.81
2022-10-19T02:28:36.709Z,76.85
2022-10-19T02:31:07.078Z,76.80
2022-10-19T02:33:34.885Z,77.04
2022-10-19T02:36:03.922Z,77.08
2022-10-19T02:38:31.889Z,76.94
2022-10-19T02:41:15.966Z,76.95
2022-10-19T02:43:50.547Z,76.95
2022-10-19T02:46:28.128Z,76.88
2022-10-19T02:48:57.225Z,76.88
2022-10-19T02:51:36.616Z,76.76
2022-10-19T02:54:08.376Z,76.83
2022-10-19T02:56:36.138Z,77.03
2022-10-19T02:59:04.195Z,77.16
2022-10-19T03:01:31.991Z,76.74
2022-10-19T03:03:59.777Z,76.81
2022-10-19T03:06:27.610Z,76.77
2022-10-19T03:08:55.411Z,76.71
2022-10-19T03:11:23.122Z,76.21
2022-10-19T03:13:50.844Z,76.04
2022-10-19T03:16:19.017Z,76.00
2022-10-19T03:18:48.739Z,76.18
2022-10-19T03:21:16.799Z,76.16
2022-10-19T03:23:44.502Z,76.09
2022-10-19T03:26:16.329Z,76.15
2022-10-19T03:28:44.220Z,76.22
2022-10-19T03:31:12.094Z,76.56
2022-10-19T03:33:39.959Z,76.19
2022-10-19T03:36:17.828Z,75.95
2022-10-19T03:38:45.725Z,75.96
2022-10-19T03:41:13.535Z,75.95
2022-10-19T03:43:41.334Z,75.61
2022-10-19T03:46:09.429Z,75.69
2022-10-19T03:48:37.270Z,75.23
2022-10-19T03:51:07.742Z,75.18
2022-10-19T03:53:43.096Z,75.39
2022-10-19T03:56:13.501Z,75.61
2022-10-19T03:58:42.415Z,75.67
2022-10-19T04:01:21.438Z,75.61
2022-10-19T04:03:54.479Z,75.68
2022-10-19T04:06:26.062Z,75.82
2022-10-19T04:08:53.890Z,75.71
2022-10-19T04:11:24.739Z,75.62
2022-10-19T04:13:53.510Z,75.72
2022-10-19T04:16:22.483Z,75.68
2022-10-19T04:18:50.715Z,75.44
2022-10-19T04:21:22.916Z,75.56
2022-10-19T04:23:53.620Z,75.49
2022-10-19T04:26:21.433Z,75.48
2022-10-19T04:28:49.775Z,75.48
2022-10-19T04:31:17.580Z,75.53
2022-10-19T04:36:14.167Z,75.81
2022-10-19T04:38:42.018Z,75.82
2022-10-19T04:41:12.651Z,76.00
2022-10-19T04:43:40.975Z,75.78
2022-10-19T04:46:19.298Z,75.84
2022-10-19T04:48:50.346Z,75.56
2022-10-19T04:51:24.537Z,75.56
2022-10-19T04:53:57.006Z,75.25
2022-10-19T04:56:28.173Z,74.94
2022-10-19T04:58:57.514Z,74.77
2022-10-19T05:01:27.428Z,74.70
2022-10-19T05:04:00.637Z,74.78
2022-10-19T05:06:29.867Z,74.60
2022-10-19T05:08:57.702Z,74.45
2022-10-19T05:11:26.095Z,74.27
2022-10-19T05:13:54.189Z,74.29
2022-10-19T05:16:23.926Z,74.19
2022-10-19T05:18:56.153Z,73.84
2022-10-19T05:21:24.399Z,73.64
2022-10-19T05:23:53.612Z,73.04
2022-10-19T05:26:23.654Z,73.29
2022-10-19T05:28:57.060Z,73.40
2022-10-19T05:31:27.276Z,73.01
2022-10-19T05:33:58.595Z,73.12
2022-10-19T05:36:28.920Z,73.01
2022-10-19T05:38:57.716Z,72.73
2022-10-19T05:41:26.427Z,72.77
2022-10-19T05:43:56.422Z,72.77
2022-10-19T05:46:24.826Z,73.08
2022-10-19T05:48:52.750Z,72.90
2022-10-19T05:51:22.308Z,72.29
2022-10-19T05:53:50.172Z,72.71
2022-10-19T05:56:20.505Z,72.33
2022-10-19T05:58:49.147Z,72.40
2022-10-19T06:01:19.085Z,72.42
2022-10-19T06:03:48.105Z,72.30
2022-10-19T06:06:15.867Z,72.26
2022-10-19T06:08:43.802Z,72.33
2022-10-19T06:11:20.368Z,72.33
2022-10-19T06:13:50.505Z,72.54
2022-10-19T06:16:19.631Z,72.55
2022-10-19T06:18:47.425Z,72.36
2022-10-19T06:21:21.231Z,72.19
2022-10-19T06:23:53.484Z,71.94
2022-10-19T06:26:21.157Z,72.08
2022-10-19T06:28:49.972Z,72.65
2022-10-19T06:31:18.399Z,72.30
2022-10-19T06:33:49.192Z,72.01
2022-10-19T06:36:22.725Z,72.09
2022-10-19T06:38:51.413Z,72.15
2022-10-19T06:41:19.520Z,72.13
2022-10-19T06:43:51.446Z,71.83
2022-10-19T06:46:22.034Z,71.82
2022-10-19T06:48:57.577Z,71.88
2022-10-19T06:51:26.902Z,71.84
2022-10-19T06:53:57.026Z,71.73
2022-10-19T06:56:26.653Z,71.79
2022-10-19T06:58:54.729Z,71.85
2022-10-19T07:01:23.377Z,71.90
2022-10-19T07:03:52.410Z,71.86
2022-10-19T07:06:20.805Z,71.66
2022-10-19T07:08:48.751Z,71.61
2022-10-19T07:11:18.960Z,71.72
2022-10-19T07:13:46.891Z,71.42
2022-10-19T07:16:19.779Z,71.21
2022-10-19T07:18:53.085Z,70.79
2022-10-19T07:21:22.593Z,70.09
2022-10-19T07:23:50.942Z,70.29
2022-10-19T07:26:27.357Z,70.07
2022-10-19T07:28:56.865Z,70.16
2022-10-19T07:31:25.701Z,69.96
2022-10-19T07:33:54.982Z,69.64
2022-10-19T07:36:26.414Z,69.65
2022-10-19T07:38:54.519Z,69.49
2022-10-19T07:41:25.206Z,69.14
2022-10-19T07:43:53.525Z,68.96
2022-10-19T07:46:25.257Z,68.92
2022-10-19T07:48:53.550Z,69.03
2022-10-19T07:51:22.673Z,68.85
2022-10-19T07:53:50.632Z,68.67
2022-10-19T07:56:20.860Z,68.79
2022-10-19T07:58:49.972Z,68.25
2022-10-19T08:01:20.198Z,67.63
2022-10-19T08:06:37.457Z,67.88
2022-10-19T08:09:05.805Z,67.10
2022-10-19T08:11:35.428Z,67.44
2022-10-19T08:14:04.057Z,66.84
2022-10-19T08:16:37.448Z,66.71
2022-10-19T08:19:08.062Z,66.30
2022-10-19T08:21:37.092Z,65.76
2022-10-19T08:24:06.057Z,65.80
2022-10-19T08:26:36.085Z,65.99
2022-10-19T08:29:05.861Z,65.50
2022-10-19T08:31:33.712Z,65.28
2022-10-19T08:34:01.535Z,64.53
2022-10-19T08:36:31.356Z,63.91
2022-10-19T08:38:59.173Z,63.98
2022-10-19T08:41:38.023Z,63.31
2022-10-19T08:44:39.880Z,63.77
2022-10-19T08:47:27.592Z,63.79
2022-10-19T08:49:59.123Z,62.28
2022-10-19T08:52:34.272Z,62.37
2022-10-19T08:55:09.041Z,61.66
2022-10-19T08:57:37.318Z,61.16
2022-10-19T09:03:27.105Z,59.40
2022-10-19T09:06:22.589Z,59.33
2022-10-19T09:08:55.429Z,59.28
2022-10-19T09:11:30.850Z,59.33
2022-10-19T09:14:26.141Z,59.43
2022-10-19T09:16:59.230Z,59.95
2022-10-19T09:19:30.131Z,59.91
2022-10-19T09:21:59.270Z,59.87
2022-10-19T09:24:30.417Z,59.70
2022-10-19T09:27:02.038Z,59.98
2022-10-19T09:29:37.187Z,60.57
2022-10-19T09:32:12.468Z,60.68
2022-10-19T09:34:46.826Z,60.12
2022-10-19T09:37:23.250Z,59.62
2022-10-19T09:39:55.191Z,59.72
2022-10-19T09:42:33.022Z,59.89
2022-10-19T09:45:06.786Z,58.98
2022-10-19T09:47:39.569Z,59.27
2022-10-19T09:50:08.914Z,58.44
2022-10-19T09:52:40.655Z,58.67
2022-10-19T09:55:14.628Z,58.21
2022-10-19T09:57:59.514Z,58.11
2022-10-19T10:00:36.738Z,57.25
2022-10-19T10:03:06.222Z,57.07
2022-10-19T10:05:39.096Z,57.24
2022-10-19T10:08:14.789Z,56.66
2022-10-19T10:10:49.091Z,56.59
2022-10-19T10:13:18.794Z,56.15
2022-10-19T10:15:54.792Z,56.49
2022-10-19T10:18:23.896Z,55.88
2022-10-19T10:21:32.184Z,55.17
2022-10-19T10:24:12.048Z,54.49
2022-10-19T10:26:42.589Z,52.52
2022-10-19T10:29:18.061Z,52.51
2022-10-19T10:31:49.051Z,51.77
2022-10-19T10:34:38.573Z,51.29
2022-10-19T10:37:19.498Z,48.84
2022-10-19T10:39:51.971Z,47.45
2022-10-19T10:42:26.487Z,47.36
2022-10-19T10:44:56.309Z,44.07
2022-10-19T10:47:27.068Z,44.94
2022-10-19T10:50:07.070Z,46.38
2022-10-19T10:52:37.081Z,47.51
2022-10-19T10:55:08.566Z,48.29
2022-10-19T10:57:53.915Z,49.16
2022-10-19T11:00:25.122Z,49.57
2022-10-19T11:03:05.393Z,50.59
2022-10-19T11:05:41.116Z,51.16
2022-10-19T11:08:27.605Z,51.46
2022-10-19T11:11:15.009Z,52.05
2022-10-19T11:13:47.791Z,52.91
2022-10-19T11:16:18.296Z,53.60
2022-10-19T11:18:53.832Z,54.24
2022-10-19T11:21:47.103Z,54.82
2022-10-19T11:27:27.712Z,55.75
2022-10-19T11:30:13.571Z,56.04
2022-10-19T11:33:02.048Z,56.16
2022-10-19T11:35:39.323Z,56.21
2022-10-19T11:38:29.758Z,56.80
2022-10-19T11:41:39.280Z,57.29
2022-10-19T11:44:23.644Z,57.25
2022-10-19T11:47:01.031Z,57.43
2022-10-19T11:49:34.762Z,57.81
2022-10-19T11:52:49.712Z,58.27
2022-10-19T11:55:33.574Z,59.45
2022-10-19T11:58:32.347Z,60.18
2022-10-19T12:01:40.925Z,60.82
2022-10-19T12:04:28.690Z,61.25
2022-10-19T12:07:18.120Z,61.42
2022-10-19T12:10:08.439Z,61.43
2022-10-19T12:12:45.190Z,60.96
2022-10-19T12:15:28.203Z,60.18
2022-10-19T12:18:01.808Z,59.56
2022-10-19T12:20:50.324Z,59.07
2022-10-19T12:23:27.044Z,59.25
2022-10-19T12:25:56.647Z,59.00
2022-10-19T12:28:55.735Z,58.86
2022-10-19T12:31:31.974Z,58.41
2022-10-19T12:34:09.996Z,58.73
2022-10-19T12:36:45.694Z,58.46
2022-10-19T12:39:21.490Z,58.42
2022-10-19T12:42:18.766Z,58.98
2022-10-19T12:45:06.879Z,59.33
2022-10-19T12:47:34.976Z,59.47
2022-10-19T12:50:03.554Z,59.46
2022-10-19T12:52:36.524Z,59.47
2022-10-19T12:55:16.836Z,59.59
2022-10-19T12:57:48.311Z,59.91
2022-10-19T13:00:25.226Z,60.10
2022-10-19T13:03:00.056Z,60.12
2022-10-19T13:05:29.761Z,60.38
2022-10-19T13:07:58.355Z,60.72
2022-10-19T13:10:28.243Z,60.83
2022-10-19T13:12:56.226Z,60.90
2022-10-19T13:15:36.577Z,61.18
2022-10-19T13:18:16.902Z,60.87
2022-10-19T13:20:52.637Z,60.97
2022-10-19T13:23:26.568Z,61.05
2022-10-19T13:26:32.985Z,60.82
2022-10-19T13:29:01.354Z,60.09
2022-10-19T13:31:31.081Z,60.06
2022-10-19T13:33:59.108Z,60.08
2022-10-19T13:36:27.319Z,60.07
2022-10-19T13:39:03.037Z,59.73
2022-10-19T13:41:37.133Z,59.08
2022-10-19T13:44:18.262Z,58.69
2022-10-19T13:47:08.739Z,58.46
2022-10-19T13:50:04.434Z,58.64
2022-10-19T13:52:42.625Z,58.69
2022-10-19T13:55:47.239Z,58.74
2022-10-19T13:58:46.417Z,58.49
2022-10-19T14:01:55.407Z,58.32
2022-10-19T14:04:40.899Z,57.45
2022-10-19T14:07:25.191Z,56.27
2022-10-19T14:10:08.346Z,54.17
2022-10-19T14:12:40.861Z,53.46
2022-10-19T14:15:27.416Z,50.80
2022-10-19T14:17:57.766Z,49.48
2022-10-19T14:20:56.184Z,48.32
2022-10-19T14:23:32.621Z,46.64
2022-10-19T14:26:15.366Z,46.50
2022-10-19T14:28:43.492Z,46.06
2022-10-19T14:31:19.193Z,45.54
2022-10-19T14:33:48.684Z,45.85
2022-10-19T14:36:22.383Z,46.73
2022-10-19T14:38:55.089Z,46.16
2022-10-19T14:41:28.900Z,43.67
2022-10-19T14:44:10.006Z,44.47
2022-10-19T14:46:50.086Z,45.02
2022-10-19T14:49:21.354Z,44.71
2022-10-19T14:51:52.177Z,44.09
2022-10-19T14:54:25.661Z,43.59
2022-10-19T14:56:56.479Z,44.59
2022-10-19T14:59:35.797Z,45.73
2022-10-19T15:02:37.518Z,46.65
2022-10-19T15:05:07.112Z,47.64
2022-10-19T15:07:40.495Z,48.51
2022-10-19T15:10:18.741Z,48.82
2022-10-19T15:12:46.678Z,48.93
2022-10-19T15:15:37.441Z,49.08
2022-10-19T15:18:06.591Z,49.82
2022-10-19T15:20:49.227Z,50.75
2022-10-19T15:23:39.075Z,51.35
2022-10-19T15:26:37.120Z,52.48
2022-10-19T15:29:20.817Z,53.30
2022-10-19T15:32:21.945Z,54.31
2022-10-19T15:34:49.830Z,55.14
2022-10-19T15:37:23.090Z,56.26
2022-10-19T15:39:52.012Z,56.71
2022-10-19T15:42:52.278Z,56.93
2022-10-19T15:45:37.618Z,57.92
2022-10-19T15:48:24.710Z,58.58
2022-10-19T15:50:55.770Z,59.43
2022-10-19T15:53:26.971Z,59.88
2022-10-19T15:55:55.452Z,60.55
2022-10-19T15:58:26.663Z,60.72
2022-10-19T16:04:28.495Z,61.42
2022-10-19T16:07:11.609Z,61.73
2022-10-19T16:09:57.343Z,61.99
2022-10-19T16:12:44.503Z,62.46
2022-10-19T16:15:14.076Z,62.76
2022-10-19T16:17:57.440Z,62.88
2022-10-19T16:20:37.655Z,63.04
2022-10-19T16:23:23.048Z,63.06
2022-10-19T16:25:57.303Z,63.10
2022-10-19T16:28:59.646Z,63.40
2022-10-19T16:31:56.981Z,64.10
2022-10-19T16:34:26.472Z,64.09
2022-10-19T16:37:04.258Z,64.22
2022-10-19T16:39:34.947Z,64.31
2022-10-19T16:42:34.044Z,64.06
2022-10-19T16:45:16.938Z,64.15
2022-10-19T16:48:09.932Z,64.11
2022-10-19T16:50:41.232Z,64.23
2022-10-19T16:53:20.742Z,63.99
2022-10-19T16:55:52.049Z,63.84
2022-10-19T16:58:37.268Z,63.80
2022-10-19T17:01:19.077Z,63.75
2022-10-19T17:05:07.874Z,63.82
2022-10-19T17:08:36.753Z,63.97
2022-10-19T17:12:03.946Z,64.03
2022-10-19T17:15:40.831Z,64.08
2022-10-19T17:18:35.872Z,64.16
2022-10-19T17:24:53.605Z,64.16
2022-10-19T17:27:39.573Z,64.08
2022-10-19T17:31:21.686Z,64.26
2022-10-19T17:34:03.408Z,64.33
2022-10-19T17:39:53.363Z,64.18
2022-10-19T17:42:49.321Z,64.10
2022-10-19T17:45:35.643Z,64.04
2022-10-19T17:48:17.160Z,64.07
2022-10-19T17:54:21.638Z,64.06
2022-10-19T17:56:54.512Z,63.91
2022-10-19T17:59:46.678Z,64.11
2022-10-19T18:02:31.803Z,64.27
2022-10-19T18:05:07.051Z,64.31
2022-10-19T18:07:46.683Z,64.26
2022-10-19T18:10:16.341Z,64.27
2022-10-19T18:13:00.225Z,64.13
2022-10-19T18:15:35.543Z,64.18
2022-10-19T18:18:41.137Z,64.10
2022-10-19T18:21:24.014Z,64.05
2022-10-19T18:24:27.344Z,64.20
2022-10-19T18:26:55.224Z,64.18
2022-10-19T18:30:01.408Z,64.22
2022-10-19T18:32:25.177Z,64.27
2022-10-19T18:35:01.374Z,64.29
2022-10-19T18:37:42.189Z,64.44
2022-10-19T18:40:11.934Z,64.54
2022-10-19T18:42:55.968Z,64.55
2022-10-19T18:46:01.276Z,64.48
2022-10-19T18:48:42.057Z,64.65
2022-10-19T18:57:09.358Z,64.46
2022-10-19T19:01:05.303Z,64.43
2022-10-19T19:11:59.667Z,64.85
2022-10-19T19:14:32.529Z,64.76
2022-10-19T19:22:51.099Z,65.23
2022-10-19T19:24:49.077Z,64.77
2022-10-19T19:25:08.305Z,65.58
2022-10-19T19:27:42.062Z,65.48
2022-10-19T19:30:51.363Z,65.24
2022-10-19T19:33:23.793Z,65.37
2022-10-19T19:36:18.548Z,65.28
2022-10-19T19:38:51.518Z,65.39
2022-10-19T19:41:19.945Z,65.35
2022-10-19T19:43:47.976Z,65.61
2022-10-19T19:46:17.941Z,65.44
2022-10-19T19:48:47.992Z,65.30
2022-10-19T19:51:18.616Z,65.14
2022-10-19T19:53:47.666Z,65.17
2022-10-19T19:56:22.164Z,65.31
2022-10-19T19:58:54.588Z,65.56
2022-10-19T20:01:22.695Z,65.56
2022-10-19T20:03:52.995Z,65.61
2022-10-19T20:06:26.147Z,65.80
2022-10-19T20:08:57.482Z,65.83
2022-10-19T20:11:41.238Z,65.97
2022-10-19T20:14:16.749Z,65.97
2022-10-19T20:16:44.686Z,65.94
2022-10-19T20:19:38.346Z,65.80
2022-10-19T20:22:07.363Z,65.60
2022-10-19T20:24:36.945Z,65.47
2022-10-19T20:27:43.794Z,65.50
2022-10-19T20:30:11.897Z,65.27
2022-10-19T20:36:12.355Z,65.26
2022-10-19T20:38:40.833Z,65.26
2022-10-19T20:41:10.472Z,65.16
2022-10-19T20:43:39.020Z,65.15
2022-10-19T20:46:25.011Z,65.18
2022-10-19T20:49:02.093Z,65.24
2022-10-19T20:51:32.854Z,65.41
2022-10-19T20:54:02.728Z,65.58
2022-10-19T20:56:34.468Z,65.50
2022-10-19T20:59:05.155Z,65.51
2022-10-19T21:01:35.701Z,65.43
2022-10-19T21:04:05.159Z,65.24
2022-10-19T21:07:32.054Z,65.16
2022-10-19T21:10:03.019Z,65.09
2022-10-19T21:12:30.737Z,65.01
2022-10-19T21:14:58.547Z,64.91
2022-10-19T21:17:29.129Z,64.81
2022-10-19T21:22:46.197Z,64.61
2022-10-19T21:25:13.939Z,64.53
2022-10-19T21:27:41.709Z,64.33
2022-10-19T21:30:10.114Z,64.31
2022-10-19T21:32:37.874Z,64.37
2022-10-19T21:35:05.970Z,64.26
2022-10-19T21:37:36.340Z,64.17
2022-10-19T21:40:04.451Z,64.16
2022-10-19T21:42:32.159Z,64.16
2022-10-19T21:45:11.822Z,64.15
2022-10-19T21:47:48.899Z,64.98
2022-10-19T21:50:17.481Z,65.11
2022-10-19T21:52:45.338Z,65.01
2022-10-19T21:55:13.130Z,64.90
2022-10-19T21:57:40.920Z,65.12
2022-10-19T22:00:09.292Z,65.51
2022-10-19T22:02:40.666Z,65.85
2022-10-19T22:05:08.592Z,65.89
2022-10-19T22:07:36.699Z,65.77
2022-10-19T22:10:05.151Z,65.70
2022-10-19T22:12:33.149Z,65.61
2022-10-19T22:15:01.052Z,65.67
2022-10-19T22:17:28.799Z,65.73
2022-10-19T22:19:56.549Z,65.59
2022-10-19T22:22:24.306Z,65.33
2022-10-19T22:24:52.053Z,65.44
2022-10-19T22:27:19.813Z,65.53
2022-10-19T22:29:47.620Z,65.33
2022-10-19T22:32:15.362Z,65.35
2022-10-19T22:34:43.071Z,65.42
2022-10-19T22:37:10.795Z,65.60
2022-10-19T22:39:38.709Z,65.84
2022-10-19T22:42:06.480Z,65.86
2022-10-19T22:44:34.265Z,65.90
2022-10-19T22:47:02.047Z,65.82
2022-10-19T22:49:29.831Z,65.99
2022-10-19T22:51:57.553Z,65.85
2022-10-19T22:54:25.826Z,66.09
2022-10-19T22:56:53.674Z,66.15
2022-10-19T22:59:21.491Z,65.99
2022-10-19T23:01:49.276Z,65.67
2022-10-19T23:04:17.047Z,65.51
2022-10-19T23:06:44.795Z,65.39
2022-10-19T23:09:12.676Z,65.11
2022-10-19T23:11:40.380Z,64.94
2022-10-19T23:14:09.360Z,64.84
2022-10-19T23:16:37.128Z,64.85
2022-10-19T23:19:04.845Z,64.76
2022-10-19T23:21:32.648Z,64.82
2022-10-19T23:24:00.656Z,64.52
2022-10-19T23:26:28.440Z,64.43
2022-10-19T23:28:56.154Z,64.27
2022-10-19T23:31:26.416Z,64.24
2022-10-19T23:33:54.452Z,64.66
2022-10-19T23:36:24.452Z,64.58
2022-10-19T23:38:53.499Z,64.55
2022-10-19T23:41:21.915Z,64.62
2022-10-19T23:43:49.865Z,64.66
2022-10-19T23:46:17.644Z,64.37
2022-10-19T23:48:45.418Z,64.64
2022-10-19T23:51:16.236Z,64.72
2022-10-19T23:53:45.577Z,64.45
2022-10-19T23:56:16.031Z,64.28
2022-10-19T23:58:44.387Z,63.90
